Grandview Heights, Ohio
Current Conditions -  °F | °C
As of 7:00 PM on Wednesday 22 Oct 2014 (Local Time) from KOSU Reporting Station
Overcast Overcast  
Wind Chill: 46°   Ceiling: 3000
Heat Index: 49°   Visibility: 10mi
Dew Point: 42°   Wind: 7mph
Humidity: 77%   Direction: 330°NNW
Pressure: 30.25"   Gusts: NA
Location:  39.987°N, 83.0425°W
Report Text: KOSU 222300Z 33006KT 10SM OVC030 09/06 A3025 RMK AO2 T00940056
Loading
Personal Weather Stations






























Interactive Weather Map New forecast layout! Learn more

10-Day Weather Forecast

Advertisements
Track Severe Weather on mobile